Time;durP1;ratioP1;P1;durP2;ratioP2;P2;SDS_P1;SDS_P2;PMS_P1;PMS_P2;Temp;Humidity;BMP_temperature;BMP_pressure;BME280_temperature;BME280_humidity;BME280_pressure;Samples;Min_cycle;Max_cycle;Signal;HPM_P1;HPM_P2
2022/03/05 00:02:12;;;;;;;;;;;;;;;;;;5059624;28;19967;-82
2022/03/05 00:04:37;;;;;;;;;;;;;;;;;;5077751;28;19908;-83
2022/03/05 00:07:02;;;;;;;;;;;;;;;;;;5059129;28;19924;-83
2022/03/05 00:09:27;;;;;;;;;;;;;;;;;;5059010;28;19915;-81
2022/03/05 00:11:52;;;;;;;;;;;;;;;;;;5059029;28;19916;-81
2022/03/05 00:14:17;;;;;;;;;;;;;;;;;;5059257;28;19994;-81
2022/03/05 00:16:42;;;;;;;;;;;;;;;;;;5059549;28;20046;-84
2022/03/05 00:19:07;;;;;;;;;;;;;;;;;;5060515;28;19892;-83
2022/03/05 00:21:33;;;;;;;;;;;;;;;;;;5059974;28;19908;-83
2022/03/05 00:23:58;;;;;;;;;;;;;;;;;;5076583;28;20348;-81
2022/03/05 00:26:23;;;;;;;;;;;;;;;;;;5065883;28;20385;-82
2022/03/05 00:28:48;;;;;;;;;;;;;;;;;;5077666;28;19909;-83
2022/03/05 00:31:13;;;;;;;;;;;;;;;;;;5079528;28;19939;-81
2022/03/05 00:33:39;;;;;;;;;;;;;;;;;;5082228;28;19909;-82
2022/03/05 00:36:04;;;;;;;;;;;;;;;;;;5083505;28;20050;-82
2022/03/05 00:38:29;;;;;;;;;;;;;;;;;;5082339;28;19915;-81
2022/03/05 00:40:57;;;;;;;;;;;;;;;;;;5081877;28;20281;-81
2022/03/05 00:43:22;;;;;;;;;;;;;;;;;;5084426;28;19915;-83
2022/03/05 00:45:47;;;;;;;;;;;;;;;;;;5082126;28;19912;-81
2022/03/05 00:48:12;;;;;;;;;;;;;;;;;;5082331;28;19922;-82
2022/03/05 00:50:39;;;;;;;;;;;;;;;;;;5084048;28;19963;-84
2022/03/05 00:53:04;;;;;;;;;;;;;;;;;;5084068;28;19908;-83
2022/03/05 00:55:29;;;;;;;;;;;;;;;;;;5083000;28;19920;-82
2022/03/05 00:57:54;;;;;;;;;;;;;;;;;;5081417;28;19912;-81
2022/03/05 01:00:19;;;;;;;;;;;;;;;;;;5080210;28;19909;-81
2022/03/05 01:02:45;;;;;;;;;;;;;;;;;;5082836;28;19943;-80
2022/03/05 01:05:10;;;;;;;;;;;;;;;;;;5081908;28;19944;-80
2022/03/05 01:07:35;;;;;;;;;;;;;;;;;;5083972;28;19913;-81
2022/03/05 01:10:00;;;;;;;;;;;;;;;;;;5080289;28;19909;-81
2022/03/05 01:12:25;;;;;;;;;;;;;;;;;;5079085;28;19908;-81
2022/03/05 01:14:50;;;;;;;;;;;;;;;;;;5081011;28;19909;-82
2022/03/05 01:17:16;;;;;;;;;;;;;;;;;;5080446;28;20361;-81
2022/03/05 01:19:41;;;;;;;;;;;;;;;;;;5078921;28;19909;-81
2022/03/05 01:22:06;;;;;;;;;;;;;;;;;;5079607;28;20265;-82
2022/03/05 01:24:31;;;;;;;;;;;;;;;;;;5080140;28;19932;-80
2022/03/05 01:26:56;;;;;;;;;;;;;;;;;;5078368;28;20255;-81
2022/03/05 01:29:21;;;;;;;;;;;;;;;;;;5079723;28;19908;-82
2022/03/05 01:31:46;;;;;;;;;;;;;;;;;;5078697;28;19923;-81
2022/03/05 01:34:11;;;;;;;;;;;;;;;;;;5081823;28;19908;-82
2022/03/05 01:36:36;;;;;;;;;;;;;;;;;;5079769;28;19958;-82
2022/03/05 01:39:02;;;;;;;;;;;;;;;;;;5079538;28;19958;-81
2022/03/05 01:41:27;;;;;;;;;;;;;;;;;;5083378;28;20007;-82
2022/03/05 01:43:52;;;;;;;;;;;;;;;;;;5081974;28;19966;-81
2022/03/05 01:46:17;;;;;;;;;;;;;;;;;;5080974;28;19916;-79
2022/03/05 01:48:42;;;;;;;;;;;;;;;;;;5080509;28;19912;-80
2022/03/05 01:51:08;;;;;;;;;;;;;;;;;;5079985;28;19954;-80
2022/03/05 01:53:33;;;;;;;;;;;;;;;;;;5080705;28;20342;-79
2022/03/05 01:55:58;;;;;;;;;;;;;;;;;;5080726;28;20024;-80
2022/03/05 01:58:23;;;;;;;;;;;;;;;;;;5080491;28;19919;-82
2022/03/05 02:00:48;;;;;;;;;;;;;;;;;;5080501;28;19908;-81
2022/03/05 02:03:13;;;;;;;;;;;;;;;;;;5081089;28;19915;-81
2022/03/05 02:05:39;;;;;;;;;;;;;;;;;;5082222;28;19964;-82
2022/03/05 02:08:04;;;;;;;;;;;;;;;;;;5084446;28;20222;-82
2022/03/05 02:10:29;;;;;;;;;;;;;;;;;;5082726;28;19947;-81
2022/03/05 02:12:54;;;;;;;;;;;;;;;;;;5082608;28;19955;-81
2022/03/05 02:15:19;;;;;;;;;;;;;;;;;;5082067;28;20003;-80
2022/03/05 02:17:45;;;;;;;;;;;;;;;;;;5084063;28;19909;-81
2022/03/05 02:20:10;;;;;;;;;;;;;;;;;;5082754;28;19964;-81
2022/03/05 02:22:36;;;;;;;;;;;;;;;;;;5082846;28;19940;-80
2022/03/05 02:25:04;;;;;;;;;;;;;;;;;;5082942;28;19915;-82
2022/03/05 02:27:29;;;;;;;;;;;;;;;;;;5081958;28;19904;-81
2022/03/05 02:29:55;;;;;;;;;;;;;;;;;;5082097;28;19918;-81
2022/03/05 02:32:20;;;;;;;;;;;;;;;;;;5081785;28;19936;-81
2022/03/05 02:34:45;;;;;;;;;;;;;;;;;;5082160;28;19932;-81
2022/03/05 02:37:10;;;;;;;;;;;;;;;;;;5082391;28;19911;-81
2022/03/05 02:39:36;;;;;;;;;;;;;;;;;;5082206;28;19908;-81
2022/03/05 02:42:01;;;;;;;;;;;;;;;;;;5083001;28;19905;-81
2022/03/05 02:44:26;;;;;;;;;;;;;;;;;;5082016;28;19951;-81
2022/03/05 02:46:51;;;;;;;;;;;;;;;;;;5082837;28;19924;-81
2022/03/05 02:49:16;;;;;;;;;;;;;;;;;;5083044;28;19908;-81
2022/03/05 02:51:41;;;;;;;;;;;;;;;;;;5082227;28;20011;-82
2022/03/05 02:54:06;;;;;;;;;;;;;;;;;;5082856;28;19912;-81
2022/03/05 02:56:31;;;;;;;;;;;;;;;;;;5081867;28;19923;-81
2022/03/05 02:58:56;;;;;;;;;;;;;;;;;;5083730;28;19892;-82
2022/03/05 03:01:22;;;;;;;;;;;;;;;;;;5082451;28;20323;-81
2022/03/05 03:03:47;;;;;;;;;;;;;;;;;;5081156;28;20393;-80
2022/03/05 03:06:12;;;;;;;;;;;;;;;;;;5080718;28;19913;-81
2022/03/05 03:08:37;;;;;;;;;;;;;;;;;;5081788;28;19995;-81
2022/03/05 03:11:02;;;;;;;;;;;;;;;;;;5081854;28;20098;-81
2022/03/05 03:13:27;;;;;;;;;;;;;;;;;;5080906;28;19960;-81
2022/03/05 03:15:52;;;;;;;;;;;;;;;;;;5079967;28;19952;-81
2022/03/05 03:18:18;;;;;;;;;;;;;;;;;;5080503;28;20434;-80
2022/03/05 03:20:43;;;;;;;;;;;;;;;;;;5080062;28;20011;-80
2022/03/05 03:23:08;;;;;;;;;;;;;;;;;;5080759;28;19915;-82
2022/03/05 03:25:33;;;;;;;;;;;;;;;;;;5081430;28;19917;-81
2022/03/05 03:27:58;;;;;;;;;;;;;;;;;;5063242;28;19958;-81
2022/03/05 03:30:23;;;;;;;;;;;;;;;;;;5081888;28;19951;-81
2022/03/05 03:32:48;;;;;;;;;;;;;;;;;;5063457;28;19943;-80
2022/03/05 03:35:13;;;;;;;;;;;;;;;;;;5080111;28;20436;-81
2022/03/05 03:37:38;;;;;;;;;;;;;;;;;;5063080;28;20035;-82
2022/03/05 03:40:03;;;;;;;;;;;;;;;;;;5063243;28;19912;-82
2022/03/05 03:42:28;;;;;;;;;;;;;;;;;;5062476;28;19915;-81
2022/03/05 03:44:54;;;;;;;;;;;;;;;;;;5062413;28;19912;-82
2022/03/05 03:47:19;;;;;;;;;;;;;;;;;;5063041;28;19917;-81
2022/03/05 03:49:44;;;;;;;;;;;;;;;;;;5080038;28;19913;-79
2022/03/05 03:52:09;;;;;;;;;;;;;;;;;;5061341;28;19966;-80
2022/03/05 03:54:34;;;;;;;;;;;;;;;;;;5062583;28;19915;-80
2022/03/05 03:56:59;;;;;;;;;;;;;;;;;;5062138;28;19999;-81
2022/03/05 03:59:25;;;;;;;;;;;;;;;;;;5080398;28;19913;-81
2022/03/05 04:01:50;;;;;;;;;;;;;;;;;;5080353;28;19923;-82
2022/03/05 04:04:15;;;;;;;;;;;;;;;;;;5062156;28;19909;-80
2022/03/05 04:09:24;;;;;;;;;;;;;;;;;;5082580;28;19935;-81
2022/03/05 04:11:49;;;;;;;;;;;;;;;;;;5083312;28;19909;-80
2022/03/05 04:14:14;;;;;;;;;;;;;;;;;;5065408;28;19938;-82
2022/03/05 04:16:39;;;;;;;;;;;;;;;;;;5083967;28;19908;-81
2022/03/05 04:19:04;;;;;;;;;;;;;;;;;;5065964;28;19915;-81
2022/03/05 04:21:29;;;;;;;;;;;;;;;;;;5065793;28;19913;-81
2022/03/05 04:23:55;;;;;;;;;;;;;;;;;;5066166;28;19908;-81
2022/03/05 04:26:20;;;;;;;;;;;;;;;;;;5071088;28;20014;-80
2022/03/05 04:28:45;;;;;;;;;;;;;;;;;;5082585;28;19962;-78
2022/03/05 04:31:10;;;;;;;;;;;;;;;;;;5083739;28;19909;-82
2022/03/05 04:33:35;;;;;;;;;;;;;;;;;;5084024;28;19915;-81
2022/03/05 04:36:00;;;;;;;;;;;;;;;;;;5082557;28;20019;-81
2022/03/05 04:38:25;;;;;;;;;;;;;;;;;;5082334;28;19916;-81
2022/03/05 04:40:51;;;;;;;;;;;;;;;;;;5081877;28;19905;-80
2022/03/05 04:43:16;;;;;;;;;;;;;;;;;;5081669;28;20273;-81
2022/03/05 04:45:41;;;;;;;;;;;;;;;;;;5082828;28;19991;-81
2022/03/05 04:48:06;;;;;;;;;;;;;;;;;;5081870;28;20285;-80
2022/03/05 04:50:31;;;;;;;;;;;;;;;;;;5081750;28;20314;-81
2022/03/05 04:52:56;;;;;;;;;;;;;;;;;;5081833;28;19940;-81
2022/03/05 04:55:21;;;;;;;;;;;;;;;;;;5082445;28;19964;-81
2022/03/05 04:57:46;;;;;;;;;;;;;;;;;;5082849;28;19915;-80
2022/03/05 05:00:12;;;;;;;;;;;;;;;;;;5082180;28;20384;-81
2022/03/05 05:02:37;;;;;;;;;;;;;;;;;;5082762;28;19919;-80
2022/03/05 05:05:02;;;;;;;;;;;;;;;;;;5082603;28;19944;-80
2022/03/05 05:07:27;;;;;;;;;;;;;;;;;;5084094;28;19917;-81
2022/03/05 05:09:53;;;;;;;;;;;;;;;;;;5084183;28;19991;-81
2022/03/05 05:12:18;;;;;;;;;;;;;;;;;;5083394;28;19979;-81
2022/03/05 05:14:43;;;;;;;;;;;;;;;;;;5082579;28;19909;-80
2022/03/05 05:17:08;;;;;;;;;;;;;;;;;;5083221;28;19988;-81
2022/03/05 05:19:33;;;;;;;;;;;;;;;;;;5083095;28;19908;-81
2022/03/05 05:21:58;;;;;;;;;;;;;;;;;;5083823;28;19912;-80
2022/03/05 05:24:23;;;;;;;;;;;;;;;;;;5083786;28;20030;-80
2022/03/05 05:26:48;;;;;;;;;;;;;;;;;;5081907;28;20289;-80
2022/03/05 05:29:13;;;;;;;;;;;;;;;;;;5083560;28;20282;-79
2022/03/05 05:31:39;;;;;;;;;;;;;;;;;;5082115;28;19911;-79
2022/03/05 05:34:04;;;;;;;;;;;;;;;;;;5082765;28;19913;-80
2022/03/05 05:36:29;;;;;;;;;;;;;;;;;;5082012;28;19904;-80
2022/03/05 05:38:54;;;;;;;;;;;;;;;;;;5082422;28;19908;-80
2022/03/05 05:41:19;;;;;;;;;;;;;;;;;;5082506;28;19911;-79
2022/03/05 05:43:44;;;;;;;;;;;;;;;;;;5082224;28;19916;-80
2022/03/05 05:46:10;;;;;;;;;;;;;;;;;;5083003;28;19920;-79
2022/03/05 05:48:35;;;;;;;;;;;;;;;;;;5083543;28;19916;-80
2022/03/05 05:51:00;;;;;;;;;;;;;;;;;;5083310;28;19916;-80
2022/03/05 05:53:25;;;;;;;;;;;;;;;;;;5081581;28;19908;-79
2022/03/05 05:55:51;;;;;;;;;;;;;;;;;;5081804;28;19916;-79
2022/03/05 05:58:16;;;;;;;;;;;;;;;;;;5081932;28;19999;-80
2022/03/05 06:00:41;;;;;;;;;;;;;;;;;;5081353;28;19971;-80
2022/03/05 06:03:06;;;;;;;;;;;;;;;;;;5082197;28;19915;-80
2022/03/05 06:05:31;;;;;;;;;;;;;;;;;;5082718;28;19908;-80
2022/03/05 06:07:56;;;;;;;;;;;;;;;;;;5082660;28;19939;-80
2022/03/05 06:10:21;;;;;;;;;;;;;;;;;;5081215;28;19909;-81
2022/03/05 06:12:48;;;;;;;;;;;;;;;;;;5082699;28;19909;-81
2022/03/05 06:15:13;;;;;;;;;;;;;;;;;;5080875;28;19913;-81
2022/03/05 06:17:39;;;;;;;;;;;;;;;;;;5080272;28;19908;-79
2022/03/05 06:20:04;;;;;;;;;;;;;;;;;;5080830;28;19913;-79
2022/03/05 06:22:29;;;;;;;;;;;;;;;;;;5080824;28;19948;-78
2022/03/05 06:24:54;;;;;;;;;;;;;;;;;;5078797;28;19913;-78
2022/03/05 06:27:20;;;;;;;;;;;;;;;;;;5077126;28;19921;-78
2022/03/05 06:29:45;;;;;;;;;;;;;;;;;;5076774;28;19946;-80
2022/03/05 06:32:10;;;;;;;;;;;;;;;;;;5076741;28;19913;-80
2022/03/05 06:34:36;;;;;;;;;;;;;;;;;;5076005;28;19916;-80
2022/03/05 06:37:01;;;;;;;;;;;;;;;;;;5077206;28;19904;-80
2022/03/05 06:39:26;;;;;;;;;;;;;;;;;;5077259;28;19908;-79
2022/03/05 06:41:51;;;;;;;;;;;;;;;;;;5076292;28;19908;-80
2022/03/05 06:44:16;;;;;;;;;;;;;;;;;;5058273;28;19916;-80
2022/03/05 06:46:41;;;;;;;;;;;;;;;;;;5075967;28;19916;-82
2022/03/05 06:49:06;;;;;;;;;;;;;;;;;;5076355;28;19916;-78
2022/03/05 06:51:31;;;;;;;;;;;;;;;;;;5057966;28;19923;-79
2022/03/05 06:53:57;;;;;;;;;;;;;;;;;;5058902;28;19947;-80
2022/03/05 06:56:22;;;;;;;;;;;;;;;;;;5058281;28;20020;-79
2022/03/05 06:58:47;;;;;;;;;;;;;;;;;;5076341;28;19915;-78
2022/03/05 07:01:12;;;;;;;;;;;;;;;;;;5076692;28;19999;-80
2022/03/05 07:03:37;;;;;;;;;;;;;;;;;;5058775;28;19908;-80
2022/03/05 07:06:02;;;;;;;;;;;;;;;;;;5075716;28;20022;-79
2022/03/05 07:08:27;;;;;;;;;;;;;;;;;;5059826;28;20289;-79
2022/03/05 07:10:52;;;;;;;;;;;;;;;;;;5058896;28;19912;-80
2022/03/05 07:13:18;;;;;;;;;;;;;;;;;;5076505;28;19958;-80
2022/03/05 07:15:43;;;;;;;;;;;;;;;;;;5058316;28;19908;-79
2022/03/05 07:18:08;;;;;;;;;;;;;;;;;;5058789;28;19984;-80
2022/03/05 07:20:33;;;;;;;;;;;;;;;;;;5076345;28;20023;-78
2022/03/05 07:22:58;;;;;;;;;;;;;;;;;;5057890;28;20273;-78
2022/03/05 07:25:23;;;;;;;;;;;;;;;;;;5076097;28;20076;-78
2022/03/05 07:27:48;;;;;;;;;;;;;;;;;;5076990;28;19924;-78
2022/03/05 07:30:13;;;;;;;;;;;;;;;;;;5058566;28;20382;-79
2022/03/05 07:32:39;;;;;;;;;;;;;;;;;;5076010;28;19908;-79
2022/03/05 07:35:04;;;;;;;;;;;;;;;;;;5076023;28;19916;-79
2022/03/05 07:37:36;;;;;;;;;;;;;;;;;;5057444;28;20320;-80
2022/03/05 07:40:01;;;;;;;;;;;;;;;;;;5075941;28;20369;-79
2022/03/05 07:42:26;;;;;;;;;;;;;;;;;;5077971;28;20330;-84
2022/03/05 07:44:51;;;;;;;;;;;;;;;;;;5081203;28;19954;-80
2022/03/05 07:47:16;;;;;;;;;;;;;;;;;;5062469;28;19916;-80
2022/03/05 07:49:41;;;;;;;;;;;;;;;;;;5063262;28;19913;-82
2022/03/05 07:52:06;;;;;;;;;;;;;;;;;;5080582;28;19909;-80
2022/03/05 07:54:31;;;;;;;;;;;;;;;;;;5080547;28;19927;-83
2022/03/05 07:56:57;;;;;;;;;;;;;;;;;;5063500;28;19916;-82
2022/03/05 07:59:22;;;;;;;;;;;;;;;;;;5081552;28;19909;-83
2022/03/05 08:01:47;;;;;;;;;;;;;;;;;;5064000;28;19915;-81
2022/03/05 08:04:12;;;;;;;;;;;;;;;;;;5081279;28;19892;-82
2022/03/05 08:06:37;;;;;;;;;;;;;;;;;;5080905;28;19961;-79
2022/03/05 08:09:02;;;;;;;;;;;;;;;;;;5060917;28;19909;-79
2022/03/05 08:11:27;;;;;;;;;;;;;;;;;;5062512;28;19915;-82
2022/03/05 08:13:52;;;;;;;;;;;;;;;;;;5080534;28;19913;-80
2022/03/05 08:16:17;;;;;;;;;;;;;;;;;;5062305;28;20285;-84
2022/03/05 08:18:43;;;;;;;;;;;;;;;;;;5080001;28;20019;-81
2022/03/05 08:21:08;;;;;;;;;;;;;;;;;;5061227;28;19909;-85
2022/03/05 08:23:33;;;;;;;;;;;;;;;;;;5078991;28;19913;-79
2022/03/05 08:25:58;;;;;;;;;;;;;;;;;;5062618;28;20047;-81
2022/03/05 08:28:23;;;;;;;;;;;;;;;;;;5077801;28;20358;-80
2022/03/05 08:30:48;;;;;;;;;;;;;;;;;;5078954;28;19926;-80
2022/03/05 08:33:13;;;;;;;;;;;;;;;;;;5079794;28;19908;-82
2022/03/05 08:35:38;;;;;;;;;;;;;;;;;;5078428;28;20011;-81
2022/03/05 08:38:03;;;;;;;;;;;;;;;;;;5077964;28;20594;-79
2022/03/05 08:40:28;;;;;;;;;;;;;;;;;;5077847;28;19909;-80
2022/03/05 08:42:54;;;;;;;;;;;;;;;;;;5077760;28;19988;-80
2022/03/05 08:45:19;;;;;;;;;;;;;;;;;;5078492;28;19905;-78
2022/03/05 08:47:44;;;;;;;;;;;;;;;;;;5080372;28;19923;-82
2022/03/05 08:50:09;;;;;;;;;;;;;;;;;;5079267;28;19919;-82
2022/03/05 08:52:37;;;;;;;;;;;;;;;;;;5080283;28;19908;-81
2022/03/05 08:55:02;;;;;;;;;;;;;;;;;;5078947;28;19916;-81
2022/03/05 08:57:27;;;;;;;;;;;;;;;;;;5079085;28;19909;-81
2022/03/05 08:59:52;;;;;;;;;;;;;;;;;;5077748;28;19908;-82
2022/03/05 09:02:17;;;;;;;;;;;;;;;;;;5080321;28;19909;-80
2022/03/05 09:04:42;;;;;;;;;;;;;;;;;;5077801;28;19955;-81
2022/03/05 09:07:08;;;;;;;;;;;;;;;;;;5078065;28;19917;-81
2022/03/05 09:09:33;;;;;;;;;;;;;;;;;;5077144;28;20361;-82
2022/03/05 09:11:58;;;;;;;;;;;;;;;;;;5077273;28;19908;-84
2022/03/05 09:14:23;;;;;;;;;;;;;;;;;;5078219;28;19916;-82
2022/03/05 09:16:48;;;;;;;;;;;;;;;;;;5078299;28;20015;-82
2022/03/05 09:19:13;;;;;;;;;;;;;;;;;;5079811;28;19909;-87
2022/03/05 09:21:38;;;;;;;;;;;;;;;;;;5078570;28;19943;-82
2022/03/05 09:24:03;;;;;;;;;;;;;;;;;;5077771;28;20003;-84
2022/03/05 09:26:28;;;;;;;;;;;;;;;;;;5076820;28;19925;-82
2022/03/05 09:28:53;;;;;;;;;;;;;;;;;;5076227;28;19926;-82
2022/03/05 09:31:18;;;;;;;;;;;;;;;;;;5077109;28;19909;-84
2022/03/05 09:33:44;;;;;;;;;;;;;;;;;;5075233;28;19958;-83
2022/03/05 09:36:09;;;;;;;;;;;;;;;;;;5076453;28;20020;-81
2022/03/05 09:38:34;;;;;;;;;;;;;;;;;;5075405;28;19912;-82
2022/03/05 09:40:59;;;;;;;;;;;;;;;;;;5075644;28;19909;-82
2022/03/05 09:43:24;;;;;;;;;;;;;;;;;;5075227;28;20012;-83
2022/03/05 09:45:49;;;;;;;;;;;;;;;;;;5074689;28;19908;-83
2022/03/05 09:48:14;;;;;;;;;;;;;;;;;;5074177;28;19999;-83
2022/03/05 09:50:39;;;;;;;;;;;;;;;;;;5074218;28;19914;-83
2022/03/05 09:53:04;;;;;;;;;;;;;;;;;;5075736;28;19920;-84
2022/03/05 09:55:30;;;;;;;;;;;;;;;;;;5074054;28;19978;-83
2022/03/05 09:57:55;;;;;;;;;;;;;;;;;;5074122;28;19909;-82
2022/03/05 10:00:20;;;;;;;;;;;;;;;;;;5074768;28;19962;-83
2022/03/05 10:02:45;;;;;;;;;;;;;;;;;;5075077;28;20354;-81
2022/03/05 10:05:10;;;;;;;;;;;;;;;;;;5074819;28;19919;-82
2022/03/05 10:07:35;;;;;;;;;;;;;;;;;;5074337;28;19916;-82
2022/03/05 10:10:00;;;;;;;;;;;;;;;;;;5075774;28;19913;-83
2022/03/05 10:12:25;;;;;;;;;;;;;;;;;;5075023;28;19909;-83
2022/03/05 10:14:50;;;;;;;;;;;;;;;;;;5077487;28;19909;-83
2022/03/05 10:17:15;;;;;;;;;;;;;;;;;;5075735;28;19954;-82
2022/03/05 10:19:41;;;;;;;;;;;;;;;;;;5075972;28;19908;-83
2022/03/05 10:22:06;;;;;;;;;;;;;;;;;;5076108;28;20282;-80
2022/03/05 10:24:31;;;;;;;;;;;;;;;;;;5075313;28;19915;-83
2022/03/05 10:26:56;;;;;;;;;;;;;;;;;;5075237;28;19932;-81
2022/03/05 10:29:21;;;;;;;;;;;;;;;;;;5074768;28;19959;-81
2022/03/05 10:31:47;;;;;;;;;;;;;;;;;;5076868;28;20412;-82
2022/03/05 10:34:12;;;;;;;;;;;;;;;;;;5076986;28;20188;-81
2022/03/05 10:36:37;;;;;;;;;;;;;;;;;;5076138;28;19909;-82
2022/03/05 10:39:07;;;;;;;;;;;;;;;;;;5076364;28;19897;-82
2022/03/05 10:41:32;;;;;;;;;;;;;;;;;;5077317;28;19930;-82
2022/03/05 10:43:57;;;;;;;;;;;;;;;;;;5077151;28;19916;-82
2022/03/05 10:46:22;;;;;;;;;;;;;;;;;;5076580;28;19917;-82
2022/03/05 10:48:48;;;;;;;;;;;;;;;;;;5076388;28;19920;-83
2022/03/05 10:51:13;;;;;;;;;;;;;;;;;;5076125;28;19909;-82
2022/03/05 10:53:38;;;;;;;;;;;;;;;;;;5075945;28;19919;-83
2022/03/05 10:56:03;;;;;;;;;;;;;;;;;;5076339;28;19936;-82
2022/03/05 10:58:28;;;;;;;;;;;;;;;;;;5075671;28;19955;-83
2022/03/05 11:00:53;;;;;;;;;;;;;;;;;;5076074;28;20000;-81
2022/03/05 11:03:18;;;;;;;;;;;;;;;;;;5076534;28;19908;-83
2022/03/05 11:05:43;;;;;;;;;;;;;;;;;;5075905;28;19948;-81
2022/03/05 11:08:08;;;;;;;;;;;;;;;;;;5077247;28;20011;-81
2022/03/05 11:10:34;;;;;;;;;;;;;;;;;;5076843;28;20428;-82
2022/03/05 11:12:59;;;;;;;;;;;;;;;;;;5075987;28;19916;-81
2022/03/05 11:15:24;;;;;;;;;;;;;;;;;;5076149;28;19909;-81
2022/03/05 11:17:49;;;;;;;;;;;;;;;;;;5075052;28;20294;-82
2022/03/05 11:20:15;;;;;;;;;;;;;;;;;;5075511;28;19978;-82
2022/03/05 11:22:40;;;;;;;;;;;;;;;;;;5077237;28;19909;-83
2022/03/05 11:25:05;;;;;;;;;;;;;;;;;;5076046;28;19965;-83
2022/03/05 11:27:32;;;;;;;;;;;;;;;;;;5074337;28;20452;-82
2022/03/05 11:29:57;;;;;;;;;;;;;;;;;;5074987;28;19971;-84
2022/03/05 11:32:22;;;;;;;;;;;;;;;;;;5073388;28;19999;-83
2022/03/05 11:34:47;;;;;;;;;;;;;;;;;;5075693;28;19951;-83
2022/03/05 11:37:12;;;;;;;;;;;;;;;;;;5075769;28;19995;-83
2022/03/05 11:39:37;;;;;;;;;;;;;;;;;;5074759;28;19975;-83
2022/03/05 11:42:03;;;;;;;;;;;;;;;;;;5074914;28;20016;-83
2022/03/05 11:44:28;;;;;;;;;;;;;;;;;;5076590;28;19913;-83
2022/03/05 11:46:53;;;;;;;;;;;;;;;;;;5076036;28;20286;-82
2022/03/05 11:49:18;;;;;;;;;;;;;;;;;;5075853;28;19908;-83
2022/03/05 11:51:43;;;;;;;;;;;;;;;;;;5075129;28;19932;-83
2022/03/05 11:54:08;;;;;;;;;;;;;;;;;;5075275;28;19908;-83
2022/03/05 11:56:33;;;;;;;;;;;;;;;;;;5075551;28;20018;-83
2022/03/05 11:58:58;;;;;;;;;;;;;;;;;;5075321;28;20215;-83
2022/03/05 12:01:23;;;;;;;;;;;;;;;;;;5075622;28;19909;-82
2022/03/05 12:03:49;;;;;;;;;;;;;;;;;;5073389;28;19958;-83
2022/03/05 12:06:14;;;;;;;;;;;;;;;;;;5074940;28;19921;-83
2022/03/05 12:08:39;;;;;;;;;;;;;;;;;;5075085;28;19909;-84
2022/03/05 12:11:04;;;;;;;;;;;;;;;;;;5074841;28;19935;-86
2022/03/05 12:13:29;;;;;;;;;;;;;;;;;;5075528;28;19899;-82
2022/03/05 12:15:54;;;;;;;;;;;;;;;;;;5076578;28;19913;-83
2022/03/05 12:18:19;;;;;;;;;;;;;;;;;;5074863;28;19909;-86
2022/03/05 12:20:45;;;;;;;;;;;;;;;;;;5076258;28;19958;-83
2022/03/05 12:23:10;;;;;;;;;;;;;;;;;;5075167;28;19920;-82
2022/03/05 12:25:36;;;;;;;;;;;;;;;;;;5075304;28;19924;-85
2022/03/05 12:28:01;;;;;;;;;;;;;;;;;;5059068;28;19905;-83
2022/03/05 12:30:26;;;;;;;;;;;;;;;;;;5061094;28;19916;-86
2022/03/05 12:32:52;;;;;;;;;;;;;;;;;;5061465;28;20357;-81
2022/03/05 12:35:18;;;;;;;;;;;;;;;;;;5061609;28;19928;-83
2022/03/05 12:37:44;;;;;;;;;;;;;;;;;;5061957;28;19932;-82
2022/03/05 12:40:09;;;;;;;;;;;;;;;;;;5061720;28;19908;-81
2022/03/05 12:42:34;;;;;;;;;;;;;;;;;;5080067;28;19974;-84
2022/03/05 12:44:59;;;;;;;;;;;;;;;;;;5080418;28;19908;-86
2022/03/05 12:47:24;;;;;;;;;;;;;;;;;;5082000;28;19927;-88
2022/03/05 12:49:49;;;;;;;;;;;;;;;;;;5061568;28;19915;-85
2022/03/05 12:52:14;;;;;;;;;;;;;;;;;;5062791;28;19912;-84
2022/03/05 12:54:39;;;;;;;;;;;;;;;;;;5080517;28;20439;-86
2022/03/05 12:57:04;;;;;;;;;;;;;;;;;;5062102;28;19964;-86
2022/03/05 12:59:30;;;;;;;;;;;;;;;;;;5079272;28;19991;-84
2022/03/05 13:01:55;;;;;;;;;;;;;;;;;;5062313;28;19912;-83
2022/03/05 13:04:20;;;;;;;;;;;;;;;;;;5061538;28;19912;-83
2022/03/05 13:06:45;;;;;;;;;;;;;;;;;;5060864;28;20472;-83
2022/03/05 13:09:10;;;;;;;;;;;;;;;;;;5061741;28;19934;-83
2022/03/05 13:11:36;;;;;;;;;;;;;;;;;;5060239;28;19979;-83
2022/03/05 13:14:02;;;;;;;;;;;;;;;;;;5058598;28;19908;-83
2022/03/05 13:16:27;;;;;;;;;;;;;;;;;;5076602;28;19975;-83
2022/03/05 13:18:52;;;;;;;;;;;;;;;;;;5058489;28;19912;-83
2022/03/05 13:21:17;;;;;;;;;;;;;;;;;;5058248;28;19908;-83
2022/03/05 13:23:42;;;;;;;;;;;;;;;;;;5077943;28;19951;-83
2022/03/05 13:26:07;;;;;;;;;;;;;;;;;;5063700;28;20196;-83
2022/03/05 13:28:32;;;;;;;;;;;;;;;;;;5078635;28;19909;-83
2022/03/05 13:30:58;;;;;;;;;;;;;;;;;;5077235;28;19912;-83
2022/03/05 13:33:23;;;;;;;;;;;;;;;;;;5076504;28;19916;-83
2022/03/05 13:35:48;;;;;;;;;;;;;;;;;;5077774;28;19908;-83
2022/03/05 13:38:13;;;;;;;;;;;;;;;;;;5076689;28;20277;-83
2022/03/05 13:40:38;;;;;;;;;;;;;;;;;;5078088;28;19909;-83
2022/03/05 13:43:03;;;;;;;;;;;;;;;;;;5077053;28;19912;-83
2022/03/05 13:45:28;;;;;;;;;;;;;;;;;;5076909;28;19954;-83
2022/03/05 13:47:54;;;;;;;;;;;;;;;;;;5076762;28;19917;-83
2022/03/05 13:50:19;;;;;;;;;;;;;;;;;;5075725;28;20405;-83
2022/03/05 13:52:44;;;;;;;;;;;;;;;;;;5076364;28;19909;-83
2022/03/05 13:55:09;;;;;;;;;;;;;;;;;;5076499;28;19909;-83
2022/03/05 13:57:34;;;;;;;;;;;;;;;;;;5076714;28;19966;-84
2022/03/05 13:59:59;;;;;;;;;;;;;;;;;;5077641;28;19962;-83
2022/03/05 14:02:24;;;;;;;;;;;;;;;;;;5078149;28;19970;-83
2022/03/05 14:04:49;;;;;;;;;;;;;;;;;;5077545;28;19909;-83
2022/03/05 14:07:14;;;;;;;;;;;;;;;;;;5075335;28;19979;-83
2022/03/05 14:09:42;;;;;;;;;;;;;;;;;;5075837;28;20035;-83
2022/03/05 14:12:08;;;;;;;;;;;;;;;;;;5076277;28;19911;-83
2022/03/05 14:14:33;;;;;;;;;;;;;;;;;;5077466;28;19909;-83
2022/03/05 14:16:58;;;;;;;;;;;;;;;;;;5076235;28;19987;-83
2022/03/05 14:19:23;;;;;;;;;;;;;;;;;;5076330;28;19899;-83
2022/03/05 14:21:48;;;;;;;;;;;;;;;;;;5076470;28;20354;-85
2022/03/05 14:24:13;;;;;;;;;;;;;;;;;;5075410;28;20006;-86
2022/03/05 14:26:38;;;;;;;;;;;;;;;;;;5076333;28;19977;-85
2022/03/05 14:29:04;;;;;;;;;;;;;;;;;;5077190;28;19934;-84
2022/03/05 14:31:29;;;;;;;;;;;;;;;;;;5077017;28;20285;-83
2022/03/05 14:33:54;;;;;;;;;;;;;;;;;;5077118;28;19913;-84
2022/03/05 14:36:20;;;;;;;;;;;;;;;;;;5077980;28;20316;-85
2022/03/05 14:38:45;;;;;;;;;;;;;;;;;;5075852;28;19966;-87
2022/03/05 14:41:10;;;;;;;;;;;;;;;;;;5075395;28;19912;-86
2022/03/05 14:43:35;;;;;;;;;;;;;;;;;;5076720;28;19908;-84
2022/03/05 14:46:00;;;;;;;;;;;;;;;;;;5075759;28;19930;-84
2022/03/05 14:48:27;;;;;;;;;;;;;;;;;;5075751;28;19913;-83
2022/03/05 14:50:52;;;;;;;;;;;;;;;;;;5076664;28;20009;-83
2022/03/05 14:53:17;;;;;;;;;;;;;;;;;;5076655;28;19913;-83
2022/03/05 14:55:42;;;;;;;;;;;;;;;;;;5076385;28;19923;-84
2022/03/05 14:58:07;;;;;;;;;;;;;;;;;;5072509;28;19936;-83
2022/03/05 15:00:33;;;;;;;;;;;;;;;;;;5073632;28;19908;-81
2022/03/05 15:02:58;;;;;;;;;;;;;;;;;;5074625;28;20290;-84
2022/03/05 15:05:23;;;;;;;;;;;;;;;;;;5074269;28;19920;-83
2022/03/05 15:07:48;;;;;;;;;;;;;;;;;;5073930;28;19928;-84
2022/03/05 15:10:13;;;;;;;;;;;;;;;;;;5074664;28;19909;-83
2022/03/05 15:12:39;;;;;;;;;;;;;;;;;;5073116;28;19982;-85
2022/03/05 15:15:04;;;;;;;;;;;;;;;;;;5074084;28;20720;-84
2022/03/05 15:17:29;;;;;;;;;;;;;;;;;;5074609;28;19920;-82
2022/03/05 15:19:54;;;;;;;;;;;;;;;;;;5075867;28;19936;-85
2022/03/05 15:22:19;;;;;;;;;;;;;;;;;;5075741;28;19916;-85
2022/03/05 15:24:45;;;;;;;;;;;;;;;;;;5076475;28;19982;-85
2022/03/05 15:27:10;;;;;;;;;;;;;;;;;;5074126;28;20381;-83
2022/03/05 15:29:35;;;;;;;;;;;;;;;;;;5072287;28;19916;-80
2022/03/05 15:32:01;;;;;;;;;;;;;;;;;;5073858;28;19963;-82
2022/03/05 15:34:26;;;;;;;;;;;;;;;;;;5073149;28;19920;-82
2022/03/05 15:36:54;;;;;;;;;;;;;;;;;;5076015;28;19912;-83
2022/03/05 15:39:19;;;;;;;;;;;;;;;;;;5073395;28;19940;-83
2022/03/05 15:41:44;;;;;;;;;;;;;;;;;;5075411;28;19908;-83
2022/03/05 15:44:09;;;;;;;;;;;;;;;;;;5075179;28;20030;-83
2022/03/05 15:46:35;;;;;;;;;;;;;;;;;;5074748;28;19982;-82
2022/03/05 15:49:04;;;;;;;;;;;;;;;;;;5074489;28;20332;-83
2022/03/05 15:51:29;;;;;;;;;;;;;;;;;;5074039;28;19919;-82
2022/03/05 15:53:54;;;;;;;;;;;;;;;;;;5077137;28;19913;-83
2022/03/05 15:56:19;;;;;;;;;;;;;;;;;;5077266;28;19943;-84
2022/03/05 15:58:45;;;;;;;;;;;;;;;;;;5078776;28;19909;-84
2022/03/05 16:01:10;;;;;;;;;;;;;;;;;;5077139;28;19908;-82
2022/03/05 16:03:35;;;;;;;;;;;;;;;;;;5077244;28;19912;-83
2022/03/05 16:06:00;;;;;;;;;;;;;;;;;;5079625;28;20003;-82
2022/03/05 16:08:25;;;;;;;;;;;;;;;;;;5077683;28;19923;-80
2022/03/05 16:10:50;;;;;;;;;;;;;;;;;;5079671;28;19917;-81
2022/03/05 16:13:16;;;;;;;;;;;;;;;;;;5078774;28;19930;-83
2022/03/05 16:15:41;;;;;;;;;;;;;;;;;;5078594;28;19982;-81
2022/03/05 16:18:06;;;;;;;;;;;;;;;;;;5077561;28;19909;-81
2022/03/05 16:20:31;;;;;;;;;;;;;;;;;;5078434;28;20471;-81
2022/03/05 16:22:56;;;;;;;;;;;;;;;;;;5077269;28;19909;-82
2022/03/05 16:25:21;;;;;;;;;;;;;;;;;;5076997;28;19916;-82
2022/03/05 16:27:46;;;;;;;;;;;;;;;;;;5078995;28;19964;-81
2022/03/05 16:30:11;;;;;;;;;;;;;;;;;;5061238;28;19980;-81
2022/03/05 16:32:37;;;;;;;;;;;;;;;;;;5078531;28;19908;-81
2022/03/05 16:35:02;;;;;;;;;;;;;;;;;;5060200;28;19909;-80